sensor_id;sensor_type;location;lat;lon;timestamp;pressure;altitude;pressure_sealevel;temperature
51561;BMP280;37654;51.262;17.058;2023-02-02T00:01:37;98750.34;;;2.71
51561;BMP280;37654;51.262;17.058;2023-02-02T00:04:03;98750.34;;;2.71
51561;BMP280;37654;51.262;17.058;2023-02-02T00:06:29;98739.25;;;2.72
51561;BMP280;37654;51.262;17.058;2023-02-02T00:08:57;98744.31;;;2.76
51561;BMP280;37654;51.262;17.058;2023-02-02T00:11:23;98742.63;;;2.75
51561;BMP280;37654;51.262;17.058;2023-02-02T00:13:48;98740.91;;;2.77
51561;BMP280;37654;51.262;17.058;2023-02-02T00:19:04;98740.97;;;2.70
51561;BMP280;37654;51.262;17.058;2023-02-02T00:21:30;98748.59;;;2.72
51561;BMP280;37654;51.262;17.058;2023-02-02T00:23:55;98752.03;;;2.73
51561;BMP280;37654;51.262;17.058;2023-02-02T00:26:21;98742.66;;;2.73
51561;BMP280;37654;51.262;17.058;2023-02-02T00:28:47;98748.56;;;2.78
51561;BMP280;37654;51.262;17.058;2023-02-02T00:31:12;98745.19;;;2.76
51561;BMP280;37654;51.262;17.058;2023-02-02T00:33:37;98753.69;;;2.78
51561;BMP280;37654;51.262;17.058;2023-02-02T00:36:04;98748.56;;;2.81
51561;BMP280;37654;51.262;17.058;2023-02-02T00:38:30;98742.59;;;2.81
51561;BMP280;37654;51.262;17.058;2023-02-02T00:40:56;98755.38;;;2.82
51561;BMP280;37654;51.262;17.058;2023-02-02T00:43:21;98750.25;;;2.82
51561;BMP280;37654;51.262;17.058;2023-02-02T00:45:47;98740.03;;;2.79
51561;BMP280;37654;51.262;17.058;2023-02-02T00:48:13;98743.47;;;2.80
51561;BMP280;37654;51.262;17.058;2023-02-02T00:50:38;98757.09;;;2.83
51561;BMP280;37654;51.262;17.058;2023-02-02T00:53:04;98756.19;;;2.86
51561;BMP280;37654;51.262;17.058;2023-02-02T00:55:29;98751.09;;;2.87
51561;BMP280;37654;51.262;17.058;2023-02-02T00:57:55;98745.13;;;2.85
51561;BMP280;37654;51.262;17.058;2023-02-02T01:00:24;98754.50;;;2.88
51561;BMP280;37654;51.262;17.058;2023-02-02T01:02:50;98747.69;;;2.85
51561;BMP280;37654;51.262;17.058;2023-02-02T01:05:16;98750.22;;;2.85
51561;BMP280;37654;51.262;17.058;2023-02-02T01:07:42;98745.97;;;2.87
51561;BMP280;37654;51.262;17.058;2023-02-02T01:10:12;98753.63;;;2.89
51561;BMP280;37654;51.262;17.058;2023-02-02T01:12:39;98752.78;;;2.88
51561;BMP280;37654;51.262;17.058;2023-02-02T01:15:05;98745.09;;;2.88
51561;BMP280;37654;51.262;17.058;2023-02-02T01:17:30;98745.97;;;2.86
51561;BMP280;37654;51.262;17.058;2023-02-02T01:19:56;98736.56;;;2.88
51561;BMP280;37654;51.262;17.058;2023-02-02T01:22:21;98754.41;;;2.94
51561;BMP280;37654;51.262;17.058;2023-02-02T01:24:47;98754.47;;;2.91
51561;BMP280;37654;51.262;17.058;2023-02-02T01:27:12;98757.03;;;2.91
51561;BMP280;37654;51.262;17.058;2023-02-02T01:29:38;98739.97;;;2.88
51561;BMP280;37654;51.262;17.058;2023-02-02T01:32:03;98750.25;;;2.82
51561;BMP280;37654;51.262;17.058;2023-02-02T01:34:29;98751.97;;;2.83
51561;BMP280;37654;51.262;17.058;2023-02-02T01:36:54;98751.94;;;2.85
51561;BMP280;37654;51.262;17.058;2023-02-02T01:39:20;98754.53;;;2.80
51561;BMP280;37654;51.262;17.058;2023-02-02T01:41:45;98754.50;;;2.85
51561;BMP280;37654;51.262;17.058;2023-02-02T01:47:04;98748.53;;;2.84
51561;BMP280;37654;51.262;17.058;2023-02-02T01:49:29;98751.91;;;2.89
51561;BMP280;37654;51.262;17.058;2023-02-02T01:51:58;98757.00;;;2.92
51561;BMP280;37654;51.262;17.058;2023-02-02T01:55:01;98751.91;;;2.91
51561;BMP280;37654;51.262;17.058;2023-02-02T01:57:27;98751.84;;;2.98
51561;BMP280;37654;51.262;17.058;2023-02-02T01:59:55;98752.69;;;2.99
51561;BMP280;37654;51.262;17.058;2023-02-02T02:02:21;98753.50;;;3.03
51561;BMP280;37654;51.262;17.058;2023-02-02T02:04:49;98757.78;;;3.03
51561;BMP280;37654;51.262;17.058;2023-02-02T02:07:14;98756.94;;;3.01
51561;BMP280;37654;51.262;17.058;2023-02-02T02:09:40;98751.81;;;3.02
51561;BMP280;37654;51.262;17.058;2023-02-02T02:12:12;98745.84;;;3.02
51561;BMP280;37654;51.262;17.058;2023-02-02T02:14:40;98739.88;;;3.03
51561;BMP280;37654;51.262;17.058;2023-02-02T02:17:39;98741.56;;;3.04
51561;BMP280;37654;51.262;17.058;2023-02-02T02:37:08;98739.03;;;3.02
51561;BMP280;37654;51.262;17.058;2023-02-02T02:39:49;98739.03;;;3.01
51561;BMP280;37654;51.262;17.058;2023-02-02T02:42:19;98730.47;;;3.03
51561;BMP280;37654;51.262;17.058;2023-02-02T02:44:46;98721.91;;;3.09
51561;BMP280;37654;51.262;17.058;2023-02-02T02:47:13;98721.06;;;3.07
51561;BMP280;37654;51.262;17.058;2023-02-02T02:49:43;98723.59;;;3.10
51561;BMP280;37654;51.262;17.058;2023-02-02T02:52:09;98725.31;;;3.12
51561;BMP280;37654;51.262;17.058;2023-02-02T02:54:37;98715.91;;;3.11
51561;BMP280;37654;51.262;17.058;2023-02-02T03:02:43;98715.84;;;3.17
51561;BMP280;37654;51.262;17.058;2023-02-02T03:05:22;98700.50;;;3.17
51561;BMP280;37654;51.262;17.058;2023-02-02T03:10:21;98703.91;;;3.19
51561;BMP280;37654;51.262;17.058;2023-02-02T03:12:50;98672.34;;;3.17
51561;BMP280;37654;51.262;17.058;2023-02-02T03:15:17;98679.16;;;3.20
51561;BMP280;37654;51.262;17.058;2023-02-02T03:17:45;98674.03;;;3.18
51561;BMP280;37654;51.262;17.058;2023-02-02T03:20:12;98668.91;;;3.18
51561;BMP280;37654;51.262;17.058;2023-02-02T03:22:38;98670.63;;;3.18
51561;BMP280;37654;51.262;17.058;2023-02-02T03:25:05;98660.41;;;3.18
51561;BMP280;37654;51.262;17.058;2023-02-02T03:27:31;98656.16;;;3.17
51561;BMP280;37654;51.262;17.058;2023-02-02T03:29:57;98649.34;;;3.16
51561;BMP280;37654;51.262;17.058;2023-02-02T03:32:22;98648.53;;;3.12
51561;BMP280;37654;51.262;17.058;2023-02-02T03:34:47;98638.31;;;3.09
51561;BMP280;37654;51.262;17.058;2023-02-02T03:37:13;98648.53;;;3.12
51561;BMP280;37654;51.262;17.058;2023-02-02T03:39:38;98642.56;;;3.10
51561;BMP280;37654;51.262;17.058;2023-02-02T03:42:04;98639.09;;;3.14
51561;BMP280;37654;51.262;17.058;2023-02-02T03:44:29;98627.16;;;3.15
51561;BMP280;37654;51.262;17.058;2023-02-02T03:46:54;98634.81;;;3.19
51561;BMP280;37654;51.262;17.058;2023-02-02T03:49:20;98638.19;;;3.21
51561;BMP280;37654;51.262;17.058;2023-02-02T03:51:46;98642.47;;;3.21
51561;BMP280;37654;51.262;17.058;2023-02-02T03:54:13;98646.72;;;3.19
51561;BMP280;37654;51.262;17.058;2023-02-02T03:56:38;98635.72;;;3.11
51561;BMP280;37654;51.262;17.058;2023-02-02T03:59:04;98634.94;;;3.06
51561;BMP280;37654;51.262;17.058;2023-02-02T04:01:29;98638.34;;;3.06
51561;BMP280;37654;51.262;17.058;2023-02-02T04:03:56;98636.63;;;3.07
51561;BMP280;37654;51.262;17.058;2023-02-02T04:06:22;98636.63;;;3.07
51561;BMP280;37654;51.262;17.058;2023-02-02T04:08:47;98642.59;;;3.09
51561;BMP280;37654;51.262;17.058;2023-02-02T04:11:13;98634.84;;;3.13
51561;BMP280;37654;51.262;17.058;2023-02-02T04:13:38;98640.78;;;3.17
51561;BMP280;37654;51.262;17.058;2023-02-02T04:16:05;98623.69;;;3.19
51561;BMP280;37654;51.262;17.058;2023-02-02T04:18:30;98621.13;;;3.19
51561;BMP280;37654;51.262;17.058;2023-02-02T04:21:00;98628.81;;;3.19
51561;BMP280;37654;51.262;17.058;2023-02-02T04:23:26;98637.34;;;3.21
51561;BMP280;37654;51.262;17.058;2023-02-02T04:25:52;98621.09;;;3.26
51561;BMP280;37654;51.262;17.058;2023-02-02T04:28:17;98639.81;;;3.29
51561;BMP280;37654;51.262;17.058;2023-02-02T04:30:43;98633.81;;;3.32
51561;BMP280;37654;51.262;17.058;2023-02-02T04:33:08;98624.38;;;3.35
51561;BMP280;37654;51.262;17.058;2023-02-02T04:35:34;98630.34;;;3.37
51561;BMP280;37654;51.262;17.058;2023-02-02T04:37:59;98624.31;;;3.41
51561;BMP280;37654;51.262;17.058;2023-02-02T04:40:25;98625.13;;;3.43
51561;BMP280;37654;51.262;17.058;2023-02-02T04:42:50;98627.69;;;3.43
51561;BMP280;37654;51.262;17.058;2023-02-02T04:45:16;98616.66;;;3.41
51561;BMP280;37654;51.262;17.058;2023-02-02T04:47:42;98624.28;;;3.43
51561;BMP280;37654;51.262;17.058;2023-02-02T04:50:07;98622.53;;;3.49
51561;BMP280;37654;51.262;17.058;2023-02-02T04:52:33;98604.56;;;3.52
51561;BMP280;37654;51.262;17.058;2023-02-02T04:54:59;98600.31;;;3.50
51561;BMP280;37654;51.262;17.058;2023-02-02T04:57:25;98616.53;;;3.50
51561;BMP280;37654;51.262;17.058;2023-02-02T04:59:50;98620.81;;;3.50
51561;BMP280;37654;51.262;17.058;2023-02-02T05:02:16;98618.25;;;3.51
51561;BMP280;37654;51.262;17.058;2023-02-02T05:04:41;98611.38;;;3.53
51561;BMP280;37654;51.262;17.058;2023-02-02T05:07:07;98628.41;;;3.57
51561;BMP280;37654;51.262;17.058;2023-02-02T05:09:32;98608.75;;;3.59
51561;BMP280;37654;51.262;17.058;2023-02-02T05:11:58;98616.41;;;3.62
51561;BMP280;37654;51.262;17.058;2023-02-02T05:14:23;98629.22;;;3.62
51561;BMP280;37654;51.262;17.058;2023-02-02T05:16:48;98612.97;;;3.63
51561;BMP280;37654;51.262;17.058;2023-02-02T05:19:14;98618.13;;;3.60
51561;BMP280;37654;51.262;17.058;2023-02-02T05:21:42;98624.06;;;3.63
51561;BMP280;37654;51.262;17.058;2023-02-02T05:24:09;98618.06;;;3.64
51561;BMP280;37654;51.262;17.058;2023-02-02T05:26:34;98624.06;;;3.63
51561;BMP280;37654;51.262;17.058;2023-02-02T05:29:00;98624.97;;;3.59
51561;BMP280;37654;51.262;17.058;2023-02-02T05:31:25;98641.19;;;3.61
51561;BMP280;37654;51.262;17.058;2023-02-02T05:33:51;98630.13;;;3.58
51561;BMP280;37654;51.262;17.058;2023-02-02T05:36:16;98621.63;;;3.53
51561;BMP280;37654;51.262;17.058;2023-02-02T05:38:42;98639.56;;;3.50
51561;BMP280;37654;51.262;17.058;2023-02-02T05:41:07;98633.63;;;3.48
51561;BMP280;37654;51.262;17.058;2023-02-02T05:43:33;98627.66;;;3.49
51561;BMP280;37654;51.262;17.058;2023-02-02T05:45:59;98637.00;;;3.52
51561;BMP280;37654;51.262;17.058;2023-02-02T05:48:26;98634.53;;;3.43
51561;BMP280;37654;51.262;17.058;2023-02-02T05:51:05;98642.19;;;3.47
51561;BMP280;37654;51.262;17.058;2023-02-02T05:53:31;98647.34;;;3.44
51561;BMP280;37654;51.262;17.058;2023-02-02T05:55:56;98639.78;;;3.34
51561;BMP280;37654;51.262;17.058;2023-02-02T05:58:22;98667.97;;;3.29
51561;BMP280;37654;51.262;17.058;2023-02-02T06:00:48;98655.22;;;3.25
51561;BMP280;37654;51.262;17.058;2023-02-02T06:03:13;98672.31;;;3.23
51561;BMP280;37654;51.262;17.058;2023-02-02T06:05:39;98685.19;;;3.16
51561;BMP280;37654;51.262;17.058;2023-02-02T06:08:05;98664.75;;;3.10
51561;BMP280;37654;51.262;17.058;2023-02-02T06:10:30;98669.88;;;3.07
51561;BMP280;37654;51.262;17.058;2023-02-02T06:12:57;98667.34;;;3.04
51561;BMP280;37654;51.262;17.058;2023-02-02T06:15:22;98676.69;;;3.08
51561;BMP280;37654;51.262;17.058;2023-02-02T06:17:48;98669.03;;;3.06
51561;BMP280;37654;51.262;17.058;2023-02-02T06:20:13;98678.34;;;3.15
51561;BMP280;37654;51.262;17.058;2023-02-02T06:22:39;98681.75;;;3.17
51561;BMP280;37654;51.262;17.058;2023-02-02T06:25:04;98681.81;;;3.09
51561;BMP280;37654;51.262;17.058;2023-02-02T06:27:32;98672.41;;;3.13
51561;BMP280;37654;51.262;17.058;2023-02-02T06:29:57;98680.94;;;3.12
51561;BMP280;37654;51.262;17.058;2023-02-02T06:32:23;98684.31;;;3.14
51561;BMP280;37654;51.262;17.058;2023-02-02T06:34:48;98680.00;;;3.19
51561;BMP280;37654;51.262;17.058;2023-02-02T06:37:13;98692.78;;;3.23
51561;BMP280;37654;51.262;17.058;2023-02-02T06:39:39;98701.25;;;3.28
51561;BMP280;37654;51.262;17.058;2023-02-02T06:42:04;98698.66;;;3.32
51561;BMP280;37654;51.262;17.058;2023-02-02T06:44:30;98702.06;;;3.31
51561;BMP280;37654;51.262;17.058;2023-02-02T06:46:55;98722.50;;;3.36
51561;BMP280;37654;51.262;17.058;2023-02-02T06:49:21;98699.50;;;3.31
51561;BMP280;37654;51.262;17.058;2023-02-02T06:51:46;98711.44;;;3.34
51561;BMP280;37654;51.262;17.058;2023-02-02T06:54:12;98717.41;;;3.34
51561;BMP280;37654;51.262;17.058;2023-02-02T06:56:38;98717.38;;;3.37
51561;BMP280;37654;51.262;17.058;2023-02-02T06:59:04;98729.31;;;3.38
51561;BMP280;37654;51.262;17.058;2023-02-02T07:01:30;98739.53;;;3.41
51561;BMP280;37654;51.262;17.058;2023-02-02T07:03:56;98741.28;;;3.36
51561;BMP280;37654;51.262;17.058;2023-02-02T07:06:27;98736.16;;;3.38
51561;BMP280;37654;51.262;17.058;2023-02-02T07:08:55;98747.22;;;3.40
51561;BMP280;37654;51.262;17.058;2023-02-02T07:11:21;98733.53;;;3.45
51561;BMP280;37654;51.262;17.058;2023-02-02T07:13:48;98756.59;;;3.44
51561;BMP280;37654;51.262;17.058;2023-02-02T07:16:15;98743.81;;;3.39
51561;BMP280;37654;51.262;17.058;2023-02-02T07:18:40;98773.63;;;3.43
51561;BMP280;37654;51.262;17.058;2023-02-02T07:21:21;98760.00;;;3.44
51561;BMP280;37654;51.262;17.058;2023-02-02T07:23:47;98765.94;;;3.48
51561;BMP280;37654;51.262;17.058;2023-02-02T07:26:16;98762.47;;;3.50
51561;BMP280;37654;51.262;17.058;2023-02-02T07:28:42;98782.16;;;3.48
51561;BMP280;37654;51.262;17.058;2023-02-02T07:31:20;98786.41;;;3.51
51561;BMP280;37654;51.262;17.058;2023-02-02T07:33:47;98793.19;;;3.53
51561;BMP280;37654;51.262;17.058;2023-02-02T07:36:14;98801.75;;;3.52
51561;BMP280;37654;51.262;17.058;2023-02-02T07:38:41;98815.34;;;3.57
51561;BMP280;37654;51.262;17.058;2023-02-02T07:41:07;98813.63;;;3.57
51561;BMP280;37654;51.262;17.058;2023-02-02T07:43:32;98820.50;;;3.55
51561;BMP280;37654;51.262;17.058;2023-02-02T07:46:03;98819.66;;;3.52
51561;BMP280;37654;51.262;17.058;2023-02-02T07:48:31;98830.72;;;3.57
51561;BMP280;37654;51.262;17.058;2023-02-02T07:51:00;98830.72;;;3.57
51561;BMP280;37654;51.262;17.058;2023-02-02T07:53:26;98841.84;;;3.53
51561;BMP280;37654;51.262;17.058;2023-02-02T07:55:52;98843.59;;;3.51
51561;BMP280;37654;51.262;17.058;2023-02-02T07:58:17;98834.22;;;3.46
51561;BMP280;37654;51.262;17.058;2023-02-02T08:00:42;98848.66;;;3.55
51561;BMP280;37654;51.262;17.058;2023-02-02T08:03:11;98853.53;;;3.86
51561;BMP280;37654;51.262;17.058;2023-02-02T08:05:37;98867.97;;;3.93
51561;BMP280;37654;51.262;17.058;2023-02-02T08:08:02;98857.50;;;4.15
51561;BMP280;37654;51.262;17.058;2023-02-02T08:10:28;98867.63;;;4.26
51561;BMP280;37654;51.262;17.058;2023-02-02T08:12:53;98863.50;;;4.10
51561;BMP280;37654;51.262;17.058;2023-02-02T08:15:19;98884.94;;;4.03
51561;BMP280;37654;51.262;17.058;2023-02-02T08:17:45;98889.06;;;4.22
51561;BMP280;37654;51.262;17.058;2023-02-02T08:20:11;98895.09;;;4.15
51561;BMP280;37654;51.262;17.058;2023-02-02T08:22:38;98896.00;;;4.08
51561;BMP280;37654;51.262;17.058;2023-02-02T08:25:04;98895.09;;;4.15
51561;BMP280;37654;51.262;17.058;2023-02-02T08:27:29;98911.34;;;4.12
51561;BMP280;37654;51.262;17.058;2023-02-02T08:29:55;98919.00;;;4.17
51561;BMP280;37654;51.262;17.058;2023-02-02T08:32:21;98922.94;;;4.50
51561;BMP280;37654;51.262;17.058;2023-02-02T08:34:49;98917.88;;;4.41
51561;BMP280;37654;51.262;17.058;2023-02-02T08:37:18;98917.88;;;4.41
51561;BMP280;37654;51.262;17.058;2023-02-02T08:39:43;98936.78;;;4.33
51561;BMP280;37654;51.262;17.058;2023-02-02T08:42:09;98935.78;;;4.47
51561;BMP280;37654;51.262;17.058;2023-02-02T08:44:35;98936.53;;;4.58
51561;BMP280;37654;51.262;17.058;2023-02-02T08:47:00;98945.13;;;4.54
51561;BMP280;37654;51.262;17.058;2023-02-02T08:49:26;98957.28;;;4.35
51561;BMP280;37654;51.262;17.058;2023-02-02T08:51:51;98966.03;;;4.10
51561;BMP280;37654;51.262;17.058;2023-02-02T08:54:17;98963.56;;;4.01
51561;BMP280;37654;51.262;17.058;2023-02-02T08:56:42;98970.38;;;4.05
51561;BMP280;37654;51.262;17.058;2023-02-02T08:59:08;98971.09;;;4.22
51561;BMP280;37654;51.262;17.058;2023-02-02T09:01:33;98967.56;;;4.32
51561;BMP280;37654;51.262;17.058;2023-02-02T09:04:04;98972.75;;;4.26
51561;BMP280;37654;51.262;17.058;2023-02-02T09:06:35;98975.38;;;4.20
51561;BMP280;37654;51.262;17.058;2023-02-02T09:09:01;98994.91;;;4.31
51561;BMP280;37654;51.262;17.058;2023-02-02T09:11:27;98981.06;;;4.48
51561;BMP280;37654;51.262;17.058;2023-02-02T09:13:55;98995.59;;;4.49
51561;BMP280;37654;51.262;17.058;2023-02-02T09:16:22;99002.44;;;4.50
51561;BMP280;37654;51.262;17.058;2023-02-02T09:18:48;99009.38;;;4.39
51561;BMP280;37654;51.262;17.058;2023-02-02T09:21:15;99006.81;;;4.39
51561;BMP280;37654;51.262;17.058;2023-02-02T09:23:42;99011.09;;;4.37
51561;BMP280;37654;51.262;17.058;2023-02-02T09:26:19;99027.34;;;4.39
51561;BMP280;37654;51.262;17.058;2023-02-02T09:28:54;99024.72;;;4.47
51561;BMP280;37654;51.262;17.058;2023-02-02T09:31:21;99038.44;;;4.38
51561;BMP280;37654;51.262;17.058;2023-02-02T09:33:47;99036.69;;;4.42
51561;BMP280;37654;51.262;17.058;2023-02-02T09:36:17;99037.56;;;4.41
51561;BMP280;37654;51.262;17.058;2023-02-02T09:38:45;99046.16;;;4.37
51561;BMP280;37654;51.262;17.058;2023-02-02T09:44:03;99050.50;;;4.29
51561;BMP280;37654;51.262;17.058;2023-02-02T09:49:01;99050.47;;;4.32
51561;BMP280;37654;51.262;17.058;2023-02-02T09:51:32;99049.50;;;4.46
51561;BMP280;37654;51.262;17.058;2023-02-02T09:54:18;99049.22;;;4.76
51561;BMP280;37654;51.262;17.058;2023-02-02T09:56:48;99060.31;;;4.78
51561;BMP280;37654;51.262;17.058;2023-02-02T09:59:32;99059.59;;;4.64
51561;BMP280;37654;51.262;17.058;2023-02-02T10:02:05;99038.97;;;4.76
51561;BMP280;37654;51.262;17.058;2023-02-02T10:04:36;99054.19;;;4.90
51561;BMP280;37654;51.262;17.058;2023-02-02T10:07:12;99060.84;;;5.09
51561;BMP280;37654;51.262;17.058;2023-02-02T10:12:32;99071.75;;;5.29
51561;BMP280;37654;51.262;17.058;2023-02-02T10:17:44;99073.88;;;4.93
51561;BMP280;37654;51.262;17.058;2023-02-02T10:22:56;99089.31;;;4.87
51561;BMP280;37654;51.262;17.058;2023-02-02T10:25:26;99080.75;;;4.90
51561;BMP280;37654;51.262;17.058;2023-02-02T10:28:25;99086.81;;;4.80
51561;BMP280;37654;51.262;17.058;2023-02-02T10:30:59;99079.03;;;4.87
51561;BMP280;37654;51.262;17.058;2023-02-02T10:33:31;99082.28;;;5.05
51561;BMP280;37654;51.262;17.058;2023-02-02T10:38:44;99084.25;;;5.55
51561;BMP280;37654;51.262;17.058;2023-02-02T10:44:36;99083.78;;;6.50
51561;BMP280;37654;51.262;17.058;2023-02-02T10:47:07;99081.81;;;6.13
51561;BMP280;37654;51.262;17.058;2023-02-02T10:49:38;99094.84;;;6.00
51561;BMP280;37654;51.262;17.058;2023-02-02T10:57:24;99094.22;;;6.92
51561;BMP280;37654;51.262;17.058;2023-02-02T11:02:46;99108.31;;;5.48
51561;BMP280;37654;51.262;17.058;2023-02-02T11:05:22;99124.84;;;5.27
51561;BMP280;37654;51.262;17.058;2023-02-02T11:08:01;99138.53;;;5.29
51561;BMP280;37654;51.262;17.058;2023-02-02T11:10:27;99137.22;;;5.68
51561;BMP280;37654;51.262;17.058;2023-02-02T11:12:53;99139.66;;;6.41
51561;BMP280;37654;51.262;17.058;2023-02-02T11:15:25;99144.06;;;6.33
51561;BMP280;37654;51.262;17.058;2023-02-02T11:17:51;99132.13;;;6.29
51561;BMP280;37654;51.262;17.058;2023-02-02T11:20:37;99156.06;;;6.35
51561;BMP280;37654;51.262;17.058;2023-02-02T11:23:03;99159.16;;;5.97
51561;BMP280;37654;51.262;17.058;2023-02-02T11:25:34;99161.06;;;5.80
51561;BMP280;37654;51.262;17.058;2023-02-02T11:28:18;99170.84;;;5.49
51561;BMP280;37654;51.262;17.058;2023-02-02T11:30:47;99159.81;;;5.40
51561;BMP280;37654;51.262;17.058;2023-02-02T11:33:33;99175.25;;;5.37
51561;BMP280;37654;51.262;17.058;2023-02-02T11:36:18;99156.38;;;5.38
51561;BMP280;37654;51.262;17.058;2023-02-02T11:38:44;99170.13;;;5.34
51561;BMP280;37654;51.262;17.058;2023-02-02T11:41:10;99162.63;;;5.15
51561;BMP280;37654;51.262;17.058;2023-02-02T11:43:48;99177.25;;;5.07
51561;BMP280;37654;51.262;17.058;2023-02-02T11:46:19;99173.03;;;5.01
51561;BMP280;37654;51.262;17.058;2023-02-02T11:48:55;99185.00;;;5.01
51561;BMP280;37654;51.262;17.058;2023-02-02T11:51:24;99194.44;;;5.00
51561;BMP280;37654;51.262;17.058;2023-02-02T11:54:02;99191.84;;;5.02
51561;BMP280;37654;51.262;17.058;2023-02-02T11:56:29;99197.88;;;4.96
51561;BMP280;37654;51.262;17.058;2023-02-02T11:58:56;99191.09;;;4.90
51561;BMP280;37654;51.262;17.058;2023-02-02T12:03:52;99201.44;;;4.78
51561;BMP280;37654;51.262;17.058;2023-02-02T12:06:33;99179.19;;;4.83
51561;BMP280;37654;51.262;17.058;2023-02-02T12:09:01;99197.09;;;4.90
51561;BMP280;37654;51.262;17.058;2023-02-02T12:14:10;99203.09;;;4.85
51561;BMP280;37654;51.262;17.058;2023-02-02T12:27:36;99225.16;;;5.11
51561;BMP280;37654;51.262;17.058;2023-02-02T12:35:36;99231.25;;;4.95
51561;BMP280;37654;51.262;17.058;2023-02-02T12:38:15;99219.38;;;4.85
51561;BMP280;37654;51.262;17.058;2023-02-02T12:43:41;99235.75;;;4.65
51561;BMP280;37654;51.262;17.058;2023-02-02T12:51:35;99252.97;;;4.48
51561;BMP280;37654;51.262;17.058;2023-02-02T12:54:20;99252.25;;;4.20
51561;BMP280;37654;51.262;17.058;2023-02-02T13:12:52;99289.19;;;3.25
51561;BMP280;37654;51.262;17.058;2023-02-02T13:15:21;99290.06;;;3.12
51561;BMP280;37654;51.262;17.058;2023-02-02T13:17:53;99294.31;;;2.98
51561;BMP280;37654;51.262;17.058;2023-02-02T13:25:57;99307.84;;;2.50
51561;BMP280;37654;51.262;17.058;2023-02-02T13:28:40;99331.69;;;2.47
51561;BMP280;37654;51.262;17.058;2023-02-02T13:31:14;99312.94;;;2.44
51561;BMP280;37654;51.262;17.058;2023-02-02T13:33:42;99329.09;;;2.37
51561;BMP280;37654;51.262;17.058;2023-02-02T13:36:17;99325.69;;;2.31
51561;BMP280;37654;51.262;17.058;2023-02-02T13:38:53;99325.69;;;2.31
51561;BMP280;37654;51.262;17.058;2023-02-02T13:41:20;99337.56;;;2.24
51561;BMP280;37654;51.262;17.058;2023-02-02T13:46:41;99341.00;;;2.23
51561;BMP280;37654;51.262;17.058;2023-02-02T13:49:17;99341.00;;;2.28
51561;BMP280;37654;51.262;17.058;2023-02-02T14:05:00;99366.75;;;2.71
51561;BMP280;37654;51.262;17.058;2023-02-02T14:07:36;99371.88;;;2.87
51561;BMP280;37654;51.262;17.058;2023-02-02T14:10:04;99373.63;;;2.95
51561;BMP280;37654;51.262;17.058;2023-02-02T14:12:33;99380.47;;;3.02
51561;BMP280;37654;51.262;17.058;2023-02-02T14:15:00;99400.09;;;3.03
51561;BMP280;37654;51.262;17.058;2023-02-02T14:19:56;99388.13;;;2.87
51561;BMP280;37654;51.262;17.058;2023-02-02T14:22:45;99390.63;;;2.74
51561;BMP280;37654;51.262;17.058;2023-02-02T14:28:09;99398.28;;;2.75
51561;BMP280;37654;51.262;17.058;2023-02-02T14:30:36;99403.38;;;2.64
51561;BMP280;37654;51.262;17.058;2023-02-02T14:33:37;99407.59;;;2.53
51561;BMP280;37654;51.262;17.058;2023-02-02T14:36:13;99422.03;;;2.45
51561;BMP280;37654;51.262;17.058;2023-02-02T14:38:56;99428.78;;;2.37
51561;BMP280;37654;51.262;17.058;2023-02-02T14:41:34;99435.66;;;2.38
51561;BMP280;37654;51.262;17.058;2023-02-02T14:44:17;99432.19;;;2.32
51561;BMP280;37654;51.262;17.058;2023-02-02T14:46:42;99447.53;;;2.30
51561;BMP280;37654;51.262;17.058;2023-02-02T14:49:18;99454.31;;;2.25
51561;BMP280;37654;51.262;17.058;2023-02-02T14:51:54;99444.06;;;2.22
51561;BMP280;37654;51.262;17.058;2023-02-02T14:54:29;99452.59;;;2.24
51561;BMP280;37654;51.262;17.058;2023-02-02T14:57:19;99465.34;;;2.21
51561;BMP280;37654;51.262;17.058;2023-02-02T14:59:44;99466.22;;;2.23
51561;BMP280;37654;51.262;17.058;2023-02-02T15:02:18;99473.03;;;2.21
51561;BMP280;37654;51.262;17.058;2023-02-02T15:04:44;99470.47;;;2.21
51561;BMP280;37654;51.262;17.058;2023-02-02T15:09:52;99483.19;;;2.16
51561;BMP280;37654;51.262;17.058;2023-02-02T15:12:46;99490.00;;;2.14
51561;BMP280;37654;51.262;17.058;2023-02-02T15:15:22;99493.47;;;2.20
51561;BMP280;37654;51.262;17.058;2023-02-02T15:18:14;99491.78;;;2.23
51561;BMP280;37654;51.262;17.058;2023-02-02T15:20:47;99504.56;;;2.25
51561;BMP280;37654;51.262;17.058;2023-02-02T15:26:16;99513.09;;;2.24
51561;BMP280;37654;51.262;17.058;2023-02-02T15:33:54;99540.34;;;2.22
51561;BMP280;37654;51.262;17.058;2023-02-02T15:36:26;99554.78;;;2.18
51561;BMP280;37654;51.262;17.058;2023-02-02T15:38:56;99556.50;;;2.19
51561;BMP280;37654;51.262;17.058;2023-02-02T15:41:33;99566.72;;;2.19
51561;BMP280;37654;51.262;17.058;2023-02-02T15:44:00;99570.94;;;2.15
51561;BMP280;37654;51.262;17.058;2023-02-02T15:46:33;99587.16;;;2.17
51561;BMP280;37654;51.262;17.058;2023-02-02T15:51:46;99603.28;;;2.10
51561;BMP280;37654;51.262;17.058;2023-02-02T15:54:26;99611.63;;;1.92
51561;BMP280;37654;51.262;17.058;2023-02-02T15:56:53;99607.34;;;1.90
51561;BMP280;37654;51.262;17.058;2023-02-02T15:59:22;99625.97;;;1.79
51561;BMP280;37654;51.262;17.058;2023-02-02T16:04:38;99636.91;;;1.67
51561;BMP280;37654;51.262;17.058;2023-02-02T16:07:06;99641.09;;;1.61
51561;BMP280;37654;51.262;17.058;2023-02-02T16:09:34;99662.31;;;1.57
51561;BMP280;37654;51.262;17.058;2023-02-02T16:12:02;99663.94;;;1.49
51561;BMP280;37654;51.262;17.058;2023-02-02T16:14:30;99674.94;;;1.47
51561;BMP280;37654;51.262;17.058;2023-02-02T16:17:09;99671.50;;;1.45
51561;BMP280;37654;51.262;17.058;2023-02-02T16:19:36;99685.94;;;1.41
51561;BMP280;37654;51.262;17.058;2023-02-02T16:22:05;99695.34;;;1.44
51561;BMP280;37654;51.262;17.058;2023-02-02T16:24:38;99701.28;;;1.44
51561;BMP280;37654;51.262;17.058;2023-02-02T16:27:06;99704.78;;;1.52
51561;BMP280;37654;51.262;17.058;2023-02-02T16:29:33;99705.69;;;1.53
51561;BMP280;37654;51.262;17.058;2023-02-02T16:31:59;99713.34;;;1.53
51561;BMP280;37654;51.262;17.058;2023-02-02T16:37:26;99731.97;;;1.47
51561;BMP280;37654;51.262;17.058;2023-02-02T16:39:56;99731.16;;;1.50
51561;BMP280;37654;51.262;17.058;2023-02-02T16:42:38;99743.94;;;1.50
51561;BMP280;37654;51.262;17.058;2023-02-02T16:45:04;99757.50;;;1.47
51561;BMP280;37654;51.262;17.058;2023-02-02T16:47:32;99752.44;;;1.49
51561;BMP280;37654;51.262;17.058;2023-02-02T16:52:33;99748.16;;;1.46